Time;durP1;ratioP1;P1;durP2;ratioP2;P2;SDS_P1;SDS_P2;PMS_P1;PMS_P2;Temp;Humidity;BMP_temperature;BMP_pressure;BME280_temperature;BME280_humidity;BME280_pressure;Samples;Min_cycle;Max_cycle;Signal;HPM_P1;HPM_P2
2022/11/15 00:00:50;;;;;;;1999.90;999.90;;;11.30;99.90;;;;;;5054018;28;20450;-69
2022/11/15 00:03:18;;;;;;;1999.90;999.90;;;11.40;99.90;;;;;;5053017;28;20419;-69
2022/11/15 00:05:44;;;;;;;1999.90;999.90;;;11.30;99.90;;;;;;5052953;28;20402;-69
2022/11/15 00:08:10;;;;;;;1999.90;999.90;;;11.40;99.90;;;;;;5054254;28;20402;-69
2022/11/15 00:10:36;;;;;;;1999.90;999.90;;;11.50;99.90;;;;;;5053930;28;20929;-69
2022/11/15 00:13:12;;;;;;;1999.90;999.90;;;11.70;99.90;;;;;;5052853;28;20954;-69
2022/11/15 00:15:40;;;;;;;1999.90;999.90;;;11.80;99.90;;;;;;5052895;28;20406;-69
2022/11/15 00:18:11;;;;;;;1999.90;999.90;;;11.90;99.90;;;;;;5052585;28;20405;-69
2022/11/15 00:20:37;;;;;;;1999.90;999.90;;;12.00;99.90;;;;;;5052597;28;20461;-69
2022/11/15 00:23:06;;;;;;;1999.90;999.90;;;12.10;99.90;;;;;;5052654;28;20514;-69
2022/11/15 00:25:31;;;;;;;1999.90;999.90;;;12.20;99.90;;;;;;5056331;28;20239;-69
2022/11/15 00:27:58;;;;;;;1999.90;999.90;;;12.30;99.90;;;;;;5061289;28;20430;-69
2022/11/15 00:30:24;;;;;;;1999.90;999.90;;;12.30;99.90;;;;;;5058049;28;20494;-69
2022/11/15 00:32:50;;;;;;;1999.90;999.90;;;12.40;99.90;;;;;;5055760;28;20460;-69
2022/11/15 00:35:15;;;;;;;1999.90;999.90;;;12.40;99.90;;;;;;5056444;28;20167;-69
2022/11/15 00:37:41;;;;;;;1999.90;999.90;;;12.50;99.90;;;;;;5055702;28;20173;-69
2022/11/15 00:40:08;;;;;;;1999.90;999.90;;;12.50;99.90;;;;;;5053855;28;20570;-69
2022/11/15 00:42:33;;;;;;;1999.90;999.90;;;12.60;99.90;;;;;;5054132;28;20185;-70
2022/11/15 00:44:59;;;;;;;1999.90;999.90;;;12.60;99.90;;;;;;5054681;28;20811;-70
2022/11/15 00:47:24;;;;;;;1999.90;999.90;;;12.60;99.90;;;;;;5052154;28;20179;-69
2022/11/15 00:49:50;;;;;;;1999.90;999.90;;;12.70;99.90;;;;;;5056654;28;20545;-69
2022/11/15 00:52:16;;;;;;;1999.90;999.90;;;12.70;99.90;;;;;;5055080;28;20297;-69
2022/11/15 00:54:41;;;;;;;1999.90;999.90;;;12.60;99.90;;;;;;5056388;28;20163;-69
2022/11/15 00:57:07;;;;;;;1999.90;999.90;;;12.70;99.90;;;;;;5056085;28;20176;-69
2022/11/15 00:59:32;;;;;;;1999.90;999.90;;;12.70;99.90;;;;;;5051985;28;20561;-69
2022/11/15 01:01:58;;;;;;;1999.90;999.90;;;12.70;99.90;;;;;;5052033;28;20169;-69
2022/11/15 01:04:23;;;;;;;1999.90;999.90;;;12.70;99.90;;;;;;5052058;28;20181;-69
2022/11/15 01:06:49;;;;;;;1999.90;999.90;;;12.60;99.90;;;;;;5051537;28;20248;-70
2022/11/15 01:09:14;;;;;;;1999.90;999.90;;;12.60;99.90;;;;;;5052114;28;20686;-70
2022/11/15 01:11:40;;;;;;;1999.90;999.90;;;12.70;99.90;;;;;;5052043;28;20228;-70
2022/11/15 01:14:06;;;;;;;1999.90;999.90;;;12.70;99.90;;;;;;5051792;28;20187;-70
2022/11/15 01:16:33;;;;;;;1999.90;999.90;;;12.70;99.90;;;;;;5051894;28;20226;-70
2022/11/15 01:18:59;;;;;;;1999.90;999.90;;;12.80;99.90;;;;;;5051631;28;20189;-70
2022/11/15 01:21:24;;;;;;;1999.90;999.90;;;12.80;99.90;;;;;;5051842;28;20466;-70
2022/11/15 01:23:56;;;;;;;1999.90;999.90;;;12.70;99.90;;;;;;5051787;28;20427;-70
2022/11/15 01:26:23;;;;;;;1999.90;999.90;;;12.70;99.90;;;;;;5051789;28;20163;-69
2022/11/15 01:28:49;;;;;;;1999.90;999.90;;;12.70;99.90;;;;;;5051663;28;20461;-69
2022/11/15 01:31:19;;;;;;;1999.90;999.90;;;12.60;99.90;;;;;;5051693;28;20961;-69
2022/11/15 01:33:45;;;;;;;1999.90;999.90;;;12.50;99.90;;;;;;5051778;28;20198;-69
2022/11/15 01:36:14;;;;;;;1999.90;999.90;;;12.50;99.90;;;;;;5051703;28;20439;-69
2022/11/15 01:38:39;;;;;;;1999.90;999.90;;;12.40;99.90;;;;;;5051616;28;20410;-69
2022/11/15 01:41:05;;;;;;;1999.90;999.90;;;12.30;99.90;;;;;;5051690;28;20466;-69
2022/11/15 01:43:34;;;;;;;1999.90;999.90;;;12.40;99.90;;;;;;5051622;28;20189;-69
2022/11/15 01:46:06;;;;;;;1999.90;999.90;;;12.30;99.90;;;;;;5051654;28;20178;-69
2022/11/15 01:48:35;;;;;;;1999.90;999.90;;;12.20;99.90;;;;;;5055163;28;20413;-69
2022/11/15 01:51:06;;;;;;;1999.90;999.90;;;12.20;99.90;;;;;;5054414;28;20435;-69
2022/11/15 01:53:33;;;;;;;1999.90;999.90;;;12.20;99.90;;;;;;5054666;28;20428;-69
2022/11/15 01:56:04;;;;;;;1999.90;999.90;;;12.20;99.90;;;;;;5053435;28;20429;-69
2022/11/15 01:58:29;;;;;;;1999.90;999.90;;;12.20;99.90;;;;;;5051261;28;20417;-69
2022/11/15 02:00:55;;;;;;;1999.90;999.90;;;12.20;99.90;;;;;;5051371;28;20464;-69
2022/11/15 02:03:25;;;;;;;1999.90;999.90;;;12.20;99.90;;;;;;5053878;28;20430;-69
2022/11/15 02:05:51;;;;;;;1999.90;999.90;;;12.20;99.90;;;;;;5055345;28;20173;-69
2022/11/15 02:08:19;;;;;;;1999.90;999.90;;;12.20;99.90;;;;;;5055151;28;20421;-69
2022/11/15 02:10:46;;;;;;;1999.90;999.90;;;12.30;99.90;;;;;;5055311;28;20697;-69
2022/11/15 02:13:16;;;;;;;1999.90;999.90;;;12.30;99.90;;;;;;5055076;28;20939;-69
2022/11/15 02:15:52;;;;;;;1999.90;999.90;;;12.40;99.90;;;;;;5055178;28;20405;-69
2022/11/15 02:18:35;;;;;;;1999.90;999.90;;;12.30;99.90;;;;;;5055065;28;20417;-69
2022/11/15 02:21:19;;;;;;;1999.90;999.90;;;12.40;99.90;;;;;;5054871;28;20467;-69
2022/11/15 02:24:25;;;;;;;1999.90;999.90;;;12.30;99.90;;;;;;5056167;28;20946;-69
2022/11/15 02:27:10;;;;;;;1999.90;999.90;;;12.30;99.90;;;;;;5054869;28;20406;-69
2022/11/15 02:29:48;;;;;;;1999.90;999.90;;;12.20;99.90;;;;;;5054865;28;20434;-70
2022/11/15 02:32:41;;;;;;;1999.90;999.90;;;12.10;99.90;;;;;;5054910;28;20499;-69
2022/11/15 02:35:39;;;;;;;1999.90;999.90;;;12.10;99.90;;;;;;5060085;28;20829;-69
2022/11/15 02:38:20;;;;;;;1999.90;999.90;;;12.00;99.90;;;;;;5059621;28;20448;-69
2022/11/15 02:40:53;;;;;;;1999.90;999.90;;;12.00;99.90;;;;;;5059021;28;20457;-70
2022/11/15 02:49:39;;;;;;;1999.90;999.90;;;12.10;99.90;;;;;;5054702;28;20399;-69
2022/11/15 02:52:04;;;;;;;1999.90;999.90;;;12.10;99.90;;;;;;5057330;28;20427;-70
2022/11/15 02:54:32;;;;;;;1999.90;999.90;;;12.10;99.90;;;;;;5059272;28;20469;-69
2022/11/15 02:57:05;;;;;;;1999.90;999.90;;;12.20;99.90;;;;;;5054264;28;20177;-69
2022/11/15 02:59:49;;;;;;;1999.90;999.90;;;12.20;99.90;;;;;;5059416;28;20396;-70
2022/11/15 03:02:43;;;;;;;1999.90;999.90;;;12.20;99.90;;;;;;5056121;28;20521;-69
2022/11/15 03:05:25;;;;;;;1999.90;999.90;;;12.20;99.90;;;;;;5050982;28;20420;-69
2022/11/15 03:07:58;;;;;;;1999.90;999.90;;;12.10;99.90;;;;;;5054021;28;20487;-69
2022/11/15 03:10:40;;;;;;;1999.90;999.90;;;12.20;99.90;;;;;;5054199;28;20406;-69
2022/11/15 03:13:27;;;;;;;1999.90;999.90;;;12.10;99.90;;;;;;5053651;28;20406;-69
2022/11/15 03:16:31;;;;;;;1999.90;999.90;;;12.20;99.90;;;;;;5054039;28;20808;-69
2022/11/15 03:19:11;;;;;;;1999.90;999.90;;;12.20;99.90;;;;;;5058215;28;20410;-70
2022/11/15 03:21:39;;;;;;;1999.90;999.90;;;12.40;99.90;;;;;;5054189;28;20447;-69
2022/11/15 03:24:07;;;;;;;1999.90;999.90;;;12.50;99.90;;;;;;5054673;28;20505;-69
2022/11/15 03:26:35;;;;;;;1999.90;999.90;;;12.40;99.90;;;;;;5057400;28;20468;-69
2022/11/15 03:29:11;;;;;;;1999.90;999.90;;;12.40;99.90;;;;;;5094698;22;20444;-71
2022/11/15 03:31:48;;;;;;;1999.90;999.90;;;12.40;99.90;;;;;;5016742;28;20506;-71
2022/11/15 03:34:29;;;;;;;1999.90;999.90;;;12.40;99.90;;;;;;5033856;28;20769;-71
2022/11/15 03:36:55;;;;;;;1999.90;999.90;;;12.50;99.90;;;;;;5034277;28;20408;-71
2022/11/15 03:39:22;;;;;;;1999.90;999.90;;;12.50;99.90;;;;;;5035693;28;20419;-71
2022/11/15 03:42:06;;;;;;;1999.90;999.90;;;12.50;99.90;;;;;;5035657;28;20982;-71
2022/11/15 03:45:00;;;;;;;1999.90;999.90;;;12.60;99.90;;;;;;5035865;28;20959;-71
2022/11/15 03:47:37;;;;;;;1999.90;999.90;;;12.60;99.90;;;;;;4994958;28;21077;-71
2022/11/15 03:50:19;;;;;;;1999.90;999.90;;;12.60;99.90;;;;;;5035452;28;20424;-71
2022/11/15 03:52:46;;;;;;;1999.90;999.90;;;12.70;99.90;;;;;;5036237;28;20457;-71
2022/11/15 03:55:15;;;;;;;1999.90;999.90;;;12.70;99.90;;;;;;5035726;28;20498;-71
2022/11/15 03:57:41;;;;;;;1999.90;999.90;;;12.70;99.90;;;;;;5035136;28;20426;-71
2022/11/15 04:00:08;;;;;;;1999.90;999.90;;;12.80;99.90;;;;;;5035098;28;20448;-71
2022/11/15 04:02:33;;;;;;;1999.90;999.90;;;12.80;99.90;;;;;;5035167;28;20178;-71
2022/11/15 04:04:59;;;;;;;1999.90;999.90;;;12.80;99.90;;;;;;5035675;28;20404;-71
2022/11/15 04:07:24;;;;;;;1999.90;999.90;;;12.80;99.90;;;;;;5035422;28;20174;-70
2022/11/15 04:10:02;;;;;;;1999.90;999.90;;;12.70;99.90;;;;;;5034127;28;20221;-71
2022/11/15 04:12:39;;;;;;;1999.90;999.90;;;12.70;99.90;;;;;;5033186;28;20646;-72
2022/11/15 04:15:10;;;;;;;1999.90;999.90;;;12.70;99.90;;;;;;5033134;28;20400;-72
2022/11/15 04:17:56;;;;;;;1999.90;999.90;;;12.80;99.90;;;;;;5032830;28;20401;-72
2022/11/15 04:26:02;;;;;;;1999.90;999.90;;;12.70;99.90;;;;;;5032298;28;20899;-72
2022/11/15 04:28:28;;;;;;;1999.90;999.90;;;12.50;99.90;;;;;;5032597;28;20439;-72
2022/11/15 04:30:54;;;;;;;1999.90;999.90;;;12.50;99.90;;;;;;5032593;28;20486;-72
2022/11/15 04:33:20;;;;;;;1999.90;999.90;;;12.50;99.90;;;;;;5032769;28;20416;-72
2022/11/15 04:37:11;;;;;;;1999.90;999.90;;;12.60;99.90;;;;;;5032816;28;20800;-71
2022/11/15 04:38:32;;;;;;;1999.90;999.90;;;12.60;99.90;;;;;;5032265;28;20419;-71
2022/11/15 04:40:57;;;;;;;1999.90;999.90;;;12.60;99.90;;;;;;5032340;28;20452;-72
2022/11/15 04:43:23;;;;;;;1999.90;999.90;;;12.60;99.90;;;;;;5032607;28;20173;-72
2022/11/15 04:45:48;;;;;;;1999.90;999.90;;;12.60;99.90;;;;;;5032602;28;20168;-71
2022/11/15 04:48:14;;;;;;;1999.90;999.90;;;12.60;99.90;;;;;;5032282;28;20171;-72
2022/11/15 04:50:39;;;;;;;1999.90;999.90;;;12.60;99.90;;;;;;5032315;28;20185;-72
2022/11/15 04:53:05;;;;;;;1999.90;999.90;;;12.70;99.90;;;;;;5032402;28;20262;-72
2022/11/15 04:55:31;;;;;;;1999.90;999.90;;;12.60;99.90;;;;;;5032334;28;20648;-72
2022/11/15 04:57:59;;;;;;;1999.90;999.90;;;12.70;99.90;;;;;;5032011;28;20410;-71
2022/11/15 05:00:25;;;;;;;1999.90;999.90;;;12.70;99.90;;;;;;5032286;28;20201;-71
2022/11/15 05:05:36;;;;;;;1999.90;999.90;;;12.70;99.90;;;;;;5032203;28;20429;-72
2022/11/15 05:08:02;;;;;;;1999.90;999.90;;;12.70;99.90;;;;;;5031922;28;20399;-71
2022/11/15 05:10:27;;;;;;;1999.90;999.90;;;12.70;99.90;;;;;;5032143;28;20476;-72
2022/11/15 05:12:53;;;;;;;1999.90;999.90;;;12.80;99.90;;;;;;5032156;28;20180;-72
2022/11/15 05:15:19;;;;;;;1999.90;999.90;;;12.80;99.90;;;;;;5032543;28;20174;-72
2022/11/15 05:17:44;;;;;;;1999.90;999.90;;;12.80;99.90;;;;;;5031794;28;20171;-72
2022/11/15 05:20:10;;;;;;;1999.90;999.90;;;12.90;99.90;;;;;;5031831;28;20237;-72
2022/11/15 05:22:36;;;;;;;1999.90;999.90;;;12.90;99.90;;;;;;5032025;28;20261;-72
2022/11/15 05:25:02;;;;;;;1999.90;999.90;;;12.90;99.90;;;;;;5031949;28;20400;-72
2022/11/15 05:27:27;;;;;;;1999.90;999.90;;;12.80;99.90;;;;;;5031776;28;20252;-72
2022/11/15 05:29:53;;;;;;;1999.90;999.90;;;12.80;99.90;;;;;;5031640;28;20210;-72
2022/11/15 05:32:18;;;;;;;1999.90;999.90;;;12.80;99.90;;;;;;5032025;28;20619;-72
2022/11/15 05:34:45;;;;;;;1999.90;999.90;;;12.80;99.90;;;;;;5032034;28;20164;-72
2022/11/15 05:37:10;;;;;;;1999.90;999.90;;;12.70;99.90;;;;;;5034049;28;20189;-72
2022/11/15 05:39:36;;;;;;;1999.90;999.90;;;12.70;99.90;;;;;;5035940;28;20467;-72
2022/11/15 05:42:14;;;;;;;1999.90;999.90;;;12.50;99.90;;;;;;5036045;28;20635;-72
2022/11/15 05:44:45;;;;;;;1999.90;999.90;;;12.40;99.90;;;;;;5036022;28;20175;-72
2022/11/15 05:47:16;;;;;;;1999.90;999.90;;;12.30;99.90;;;;;;5035798;28;20942;-72
2022/11/15 05:49:44;;;;;;;1999.90;999.90;;;12.20;99.90;;;;;;5035744;28;20423;-72
2022/11/15 05:52:13;;;;;;;1999.90;999.90;;;12.20;99.90;;;;;;5035720;28;20451;-72
2022/11/15 05:54:39;;;;;;;1999.90;999.90;;;12.10;99.90;;;;;;5035642;28;20407;-72
2022/11/15 05:57:05;;;;;;;1999.90;999.90;;;12.20;99.90;;;;;;5035492;28;20984;-71
2022/11/15 05:59:32;;;;;;;1999.90;999.90;;;12.10;99.90;;;;;;5035507;28;20430;-71
2022/11/15 06:01:58;;;;;;;1999.90;999.90;;;12.00;99.90;;;;;;5037394;28;20451;-71
2022/11/15 06:04:24;;;;;;;1999.90;999.90;;;11.90;99.90;;;;;;5036489;28;20405;-71
2022/11/15 06:06:49;;;;;;;1999.90;999.90;;;11.80;99.90;;;;;;5035230;28;20595;-71
2022/11/15 06:09:15;;;;;;;1999.90;999.90;;;11.70;99.90;;;;;;5035238;28;20788;-71
2022/11/15 06:11:40;;;;;;;1999.90;999.90;;;11.60;99.90;;;;;;5035359;28;20169;-71
2022/11/15 06:14:06;;;;;;;1999.90;999.90;;;11.60;99.90;;;;;;5035265;28;20650;-71
2022/11/15 06:16:32;;;;;;;1999.90;999.90;;;11.50;99.90;;;;;;5035195;28;20177;-71
2022/11/15 06:18:57;;;;;;;1999.90;999.90;;;11.40;99.90;;;;;;5035789;28;20629;-71
2022/11/15 06:21:23;;;;;;;1999.90;999.90;;;11.30;99.90;;;;;;5036595;28;20291;-72
2022/11/15 06:23:48;;;;;;;1999.90;999.90;;;11.30;99.90;;;;;;5036706;28;20165;-71
2022/11/15 06:26:14;;;;;;;1999.90;999.90;;;11.30;99.90;;;;;;5037127;28;20215;-71
2022/11/15 06:28:39;;;;;;;1999.90;999.90;;;11.20;99.90;;;;;;5036095;28;20207;-71
2022/11/15 06:31:13;;;;;;;1999.90;999.90;;;11.20;99.90;;;;;;5037889;28;20196;-71
2022/11/15 06:33:39;;;;;;;1999.90;999.90;;;11.30;99.90;;;;;;5038249;28;20188;-71
2022/11/15 06:36:07;;;;;;;1999.90;999.90;;;11.40;99.90;;;;;;5037812;28;20448;-71
2022/11/15 06:38:33;;;;;;;1999.90;999.90;;;11.50;99.90;;;;;;5037145;28;20626;-71
2022/11/15 06:41:07;;;;;;;1999.90;999.90;;;11.50;99.90;;;;;;5037714;28;20512;-71
2022/11/15 06:43:33;;;;;;;1999.90;999.90;;;11.40;99.90;;;;;;5037972;28;20407;-71
2022/11/15 06:45:59;;;;;;;1999.90;999.90;;;11.50;99.90;;;;;;5038438;28;20414;-71
2022/11/15 06:48:26;;;;;;;1999.90;999.90;;;11.50;99.90;;;;;;5036693;28;20416;-71
2022/11/15 06:50:56;;;;;;;1999.90;999.90;;;11.50;99.90;;;;;;5036813;28;20430;-71
2022/11/15 06:53:22;;;;;;;1999.90;999.90;;;11.60;99.90;;;;;;5036370;28;20404;-71
2022/11/15 06:55:48;;;;;;;1999.90;999.90;;;11.60;99.90;;;;;;5036478;28;20761;-71
2022/11/15 06:58:14;;;;;;;1999.90;999.90;;;11.60;99.90;;;;;;5036306;28;20510;-71
2022/11/15 07:00:40;;;;;;;1999.90;999.90;;;11.70;99.90;;;;;;5036629;28;20196;-71
2022/11/15 07:03:06;;;;;;;1999.90;999.90;;;11.70;99.90;;;;;;5036760;28;20723;-71
2022/11/15 07:05:31;;;;;;;1999.90;999.90;;;11.70;99.90;;;;;;5036381;28;20408;-71
2022/11/15 07:07:58;;;;;;;1999.90;999.90;;;11.70;99.90;;;;;;5035616;28;20198;-71
2022/11/15 07:10:25;;;;;;;1999.90;999.90;;;11.80;99.90;;;;;;5035930;28;20285;-71
2022/11/15 07:12:51;;;;;;;1999.90;999.90;;;11.80;99.90;;;;;;5037275;28;20408;-71
2022/11/15 07:15:18;;;;;;;1999.90;999.90;;;11.80;99.90;;;;;;5036108;28;20986;-71
2022/11/15 07:17:44;;;;;;;1999.90;999.90;;;11.90;99.90;;;;;;5036651;28;20447;-71
2022/11/15 07:20:10;;;;;;;1999.90;999.90;;;11.90;99.90;;;;;;5036028;28;20450;-71
2022/11/15 07:22:36;;;;;;;1999.90;999.90;;;11.80;99.90;;;;;;5036170;28;20698;-71
2022/11/15 07:25:02;;;;;;;1999.90;999.90;;;11.90;99.90;;;;;;5036153;28;20489;-71
2022/11/15 07:27:27;;;;;;;1999.90;999.90;;;11.90;99.90;;;;;;5035698;28;20210;-71
2022/11/15 07:29:53;;;;;;;1999.90;999.90;;;11.90;99.90;;;;;;5035927;28;20443;-72
2022/11/15 07:32:18;;;;;;;1999.90;999.90;;;11.90;99.90;;;;;;5036632;28;20168;-71
2022/11/15 07:34:45;;;;;;;1999.90;999.90;;;12.00;99.90;;;;;;5036089;28;20226;-71
2022/11/15 07:37:11;;;;;;;1999.90;999.90;;;12.10;99.90;;;;;;5036342;28;20657;-71
2022/11/15 07:39:37;;;;;;;1999.90;999.90;;;12.10;99.90;;;;;;5036360;28;20467;-71
2022/11/15 07:44:47;;;;;;;1999.90;999.90;;;12.10;99.90;;;;;;5036377;28;20692;-71
2022/11/15 07:47:12;;;;;;;1999.90;999.90;;;12.10;99.90;;;;;;5035610;28;20410;-71
2022/11/15 07:49:38;;;;;;;1999.90;999.90;;;12.00;99.90;;;;;;5035277;28;20189;-70
2022/11/15 07:52:03;;;;;;;1999.90;999.90;;;12.10;99.90;;;;;;5035774;28;20172;-71
2022/11/15 07:54:29;;;;;;;1999.90;999.90;;;12.10;99.90;;;;;;5035674;28;20169;-71
2022/11/15 07:56:55;;;;;;;1999.90;999.90;;;12.10;99.90;;;;;;5033282;28;20308;-71
2022/11/15 07:59:20;;;;;;;1999.90;999.90;;;12.10;99.90;;;;;;5032755;28;20208;-71
2022/11/15 08:01:46;;;;;;;1999.90;999.90;;;12.10;99.90;;;;;;5032836;28;20202;-71
2022/11/15 08:04:11;;;;;;;1999.90;999.90;;;12.10;99.90;;;;;;5033420;28;20657;-71
2022/11/15 08:06:37;;;;;;;1999.90;999.90;;;12.10;99.90;;;;;;5032753;28;20165;-72
2022/11/15 08:09:03;;;;;;;1999.90;999.90;;;12.10;99.90;;;;;;5033089;28;20184;-71
2022/11/15 08:11:29;;;;;;;1999.90;999.90;;;12.10;99.90;;;;;;5033728;28;20170;-72
2022/11/15 08:13:54;;;;;;;1999.90;999.90;;;12.20;99.90;;;;;;5033447;28;20408;-71
2022/11/15 08:16:20;;;;;;;1999.90;999.90;;;12.20;99.90;;;;;;5032949;28;20178;-71
2022/11/15 08:18:46;;;;;;;1999.90;999.90;;;12.30;99.90;;;;;;5032659;28;20585;-71
2022/11/15 08:21:17;;;;;;;1999.90;999.90;;;12.40;99.90;;;;;;5035845;28;20192;-71
2022/11/15 08:23:42;;;;;;;1999.90;999.90;;;12.50;99.90;;;;;;5035133;28;20622;-71
2022/11/15 08:26:08;;;;;;;1999.90;999.90;;;12.70;99.90;;;;;;5034091;28;20396;-71
2022/11/15 08:28:34;;;;;;;1999.90;999.90;;;12.80;99.90;;;;;;5034664;28;20164;-72
2022/11/15 08:30:59;;;;;;;1999.90;999.90;;;12.80;99.90;;;;;;5034509;28;20548;-71
2022/11/15 08:33:25;;;;;;;1999.90;999.90;;;12.90;99.90;;;;;;5034587;28;20172;-71
2022/11/15 08:35:51;;;;;;;1999.90;999.90;;;13.00;99.90;;;;;;5035018;28;20297;-71
2022/11/15 08:38:16;;;;;;;1999.90;999.90;;;13.00;99.90;;;;;;5034508;28;20438;-71
2022/11/15 08:40:42;;;;;;;1999.90;999.90;;;13.00;99.90;;;;;;5032045;28;20251;-71
2022/11/15 08:43:07;;;;;;;1999.90;999.90;;;13.00;99.90;;;;;;5032300;28;20648;-71
2022/11/15 08:45:35;;;;;;;1999.90;999.90;;;12.90;99.90;;;;;;5032758;28;20217;-72
2022/11/15 08:48:02;;;;;;;1999.90;999.90;;;12.90;99.90;;;;;;5033461;28;20802;-71
2022/11/15 08:50:28;;;;;;;1999.90;999.90;;;12.90;99.90;;;;;;5032980;28;20438;-71
2022/11/15 08:52:54;;;;;;;1999.90;999.90;;;12.80;99.90;;;;;;5033327;28;20823;-71
2022/11/15 08:55:19;;;;;;;1999.90;999.90;;;12.80;99.90;;;;;;5033635;28;20670;-71
2022/11/15 08:57:45;;;;;;;1999.90;999.90;;;12.80;99.90;;;;;;5032675;28;20756;-71
2022/11/15 09:00:12;;;;;;;1999.90;999.90;;;12.80;99.90;;;;;;5033105;28;20209;-71
2022/11/15 09:02:39;;;;;;;1999.90;999.90;;;12.80;99.90;;;;;;5033854;28;20193;-71
2022/11/15 09:05:06;;;;;;;1999.90;999.90;;;12.80;99.90;;;;;;5032980;28;20436;-71
2022/11/15 09:07:31;;;;;;;1999.90;999.90;;;12.90;99.90;;;;;;5033276;28;20915;-71
2022/11/15 09:09:57;;;;;;;1999.90;999.90;;;12.90;99.90;;;;;;5033599;28;20423;-71
2022/11/15 09:12:23;;;;;;;1999.90;999.90;;;12.90;99.90;;;;;;5034147;28;20172;-71
2022/11/15 09:14:49;;;;;;;1999.90;999.90;;;13.00;99.90;;;;;;5033649;28;20487;-71
2022/11/15 09:17:14;;;;;;;1999.90;999.90;;;13.00;99.90;;;;;;5033871;28;20912;-71
2022/11/15 09:19:40;;;;;;;1999.90;999.90;;;13.10;99.90;;;;;;5034309;28;20185;-71
2022/11/15 09:22:07;;;;;;;1999.90;999.90;;;13.10;99.90;;;;;;5033591;28;20222;-71
2022/11/15 09:24:34;;;;;;;1999.90;999.90;;;13.10;99.90;;;;;;5033762;28;20405;-71
2022/11/15 09:27:00;;;;;;;1999.90;999.90;;;13.20;99.90;;;;;;5033276;28;20409;-71
2022/11/15 09:29:25;;;;;;;1999.90;999.90;;;13.20;99.90;;;;;;5070496;22;21209;-70
2022/11/15 09:31:54;;;;;;;1999.90;999.90;;;13.30;99.90;;;;;;5016466;28;20178;-70
2022/11/15 09:34:20;;;;;;;1999.90;999.90;;;13.30;99.90;;;;;;5012734;28;20450;-70
2022/11/15 09:36:46;;;;;;;1999.90;999.90;;;13.40;99.90;;;;;;5013436;28;20398;-70
2022/11/15 09:39:12;;;;;;;1999.90;999.90;;;13.40;99.90;;;;;;5012434;28;20819;-70
2022/11/15 09:42:05;;;;;;;1999.90;999.90;;;13.40;99.90;;;;;;5012082;28;20203;-70
2022/11/15 09:44:49;;;;;;;1999.90;999.90;;;13.40;99.90;;;;;;5015249;28;20253;-69
2022/11/15 09:47:15;;;;;;;1999.90;999.90;;;13.60;99.90;;;;;;5011443;28;20406;-69
2022/11/15 09:49:40;;;;;;;1999.90;999.90;;;13.60;99.90;;;;;;5014512;28;20944;-71
2022/11/15 09:52:08;;;;;;;1999.90;999.90;;;13.70;99.90;;;;;;5013832;28;20170;-69
2022/11/15 09:54:47;;;;;;;1999.90;999.90;;;13.80;99.90;;;;;;5013652;28;20166;-70
2022/11/15 09:57:33;;;;;;;1999.90;999.90;;;13.90;99.90;;;;;;5014192;28;20401;-70
2022/11/15 10:00:17;;;;;;;1999.90;999.90;;;13.90;99.90;;;;;;5013658;28;20766;-70
2022/11/15 10:03:11;;;;;;;1999.90;999.90;;;14.00;99.90;;;;;;5014085;28;20410;-70
2022/11/15 10:05:48;;;;;;;1999.90;999.90;;;14.10;99.90;;;;;;4994411;28;20415;-70
2022/11/15 10:08:32;;;;;;;1999.90;999.90;;;14.10;99.90;;;;;;5018618;28;20437;-69
2022/11/15 10:11:05;;;;;;;1999.90;999.90;;;14.20;99.90;;;;;;5019541;28;20462;-69
2022/11/15 10:13:35;;;;;;;1999.90;999.90;;;14.10;99.90;;;;;;5019049;28;20402;-70
2022/11/15 10:16:22;;;;;;;1999.90;999.90;;;14.00;99.90;;;;;;5018701;28;20980;-70
2022/11/15 10:19:08;;;;;;;1999.90;999.90;;;14.20;99.90;;;;;;5018835;28;20409;-69
2022/11/15 10:21:56;;;;;;;1999.90;999.90;;;14.30;99.90;;;;;;5019252;28;20446;-70
2022/11/15 10:24:28;;;;;;;1999.90;999.90;;;14.50;99.90;;;;;;5020433;28;20405;-70
2022/11/15 10:26:55;;;;;;;1999.90;999.90;;;14.40;99.90;;;;;;5021450;28;20443;-69
2022/11/15 10:29:22;;;;;;;1999.90;999.90;;;14.40;99.90;;;;;;5019599;28;20434;-70
2022/11/15 10:31:49;;;;;;;1999.90;999.90;;;14.40;99.90;;;;;;5020149;28;20404;-69
2022/11/15 10:34:18;;;;;;;1999.90;999.90;;;14.40;99.90;;;;;;5021453;28;20920;-69
2022/11/15 10:36:55;;;;;;;1999.90;999.90;;;14.50;99.90;;;;;;5019961;28;20405;-70
2022/11/15 10:39:20;;;;;;;1999.90;999.90;;;14.60;99.90;;;;;;5020492;28;20398;-70
2022/11/15 10:41:46;;;;;;;1999.90;999.90;;;14.50;99.90;;;;;;5019979;28;20538;-69
2022/11/15 10:44:28;;;;;;;1999.90;999.90;;;14.60;99.90;;;;;;5015334;28;20181;-70
2022/11/15 10:47:02;;;;;;;1999.90;999.90;;;14.60;99.90;;;;;;5013957;28;20659;-70
2022/11/15 10:49:30;;;;;;;1999.90;999.90;;;14.70;99.90;;;;;;5014497;28;20421;-70
2022/11/15 10:52:11;;;;;;;1999.90;999.90;;;14.70;99.90;;;;;;5014618;28;20807;-70
2022/11/15 10:54:41;;;;;;;1999.90;999.90;;;14.80;99.90;;;;;;5014097;28;20409;-70
2022/11/15 10:57:28;;;;;;;1999.90;999.90;;;14.80;99.90;;;;;;5014375;28;20777;-70
2022/11/15 11:00:00;;;;;;;1999.90;999.90;;;14.80;99.90;;;;;;5014288;28;20482;-71
2022/11/15 11:02:36;;;;;;;1999.90;999.90;;;15.00;99.90;;;;;;5014159;28;20534;-70
2022/11/15 11:05:05;;;;;;;1999.90;999.90;;;15.10;99.90;;;;;;5014379;28;20405;-70
2022/11/15 11:07:34;;;;;;;1999.90;999.90;;;15.20;99.90;;;;;;5013706;28;20417;-71
2022/11/15 11:10:16;;;;;;;1999.90;999.90;;;15.30;99.90;;;;;;5013736;28;20423;-71
2022/11/15 11:12:42;;;;;;;1999.90;999.90;;;15.40;99.90;;;;;;5014184;28;20424;-70
2022/11/15 11:15:16;;;;;;;1999.90;999.90;;;15.50;99.90;;;;;;5014130;28;20648;-71
2022/11/15 11:18:02;;;;;;;1999.90;999.90;;;15.70;99.90;;;;;;5013588;28;20720;-70
2022/11/15 11:20:46;;;;;;;1999.90;999.90;;;16.40;99.90;;;;;;5014311;28;20887;-70
2022/11/15 11:23:37;;;;;;;1999.90;999.90;;;17.10;99.90;;;;;;5014488;28;20389;-70
2022/11/15 11:26:21;;;;;;;1999.90;999.90;;;17.70;99.90;;;;;;5017909;28;20764;-70
2022/11/15 11:29:17;;;;;;;1999.90;999.90;;;18.20;97.20;;;;;;5018416;28;20905;-71
2022/11/15 11:32:02;;;;;;;1999.90;999.90;;;18.50;91.60;;;;;;5017629;28;20416;-70
2022/11/15 11:34:44;;;;;;;1999.90;999.90;;;18.70;85.80;;;;;;5016261;28;20411;-71
2022/11/15 11:37:30;;;;;;;1999.90;999.90;;;18.50;78.10;;;;;;5013344;28;20402;-70
2022/11/15 11:40:20;;;;;;;1999.90;999.90;;;17.90;76.50;;;;;;5013722;28;20431;-70
2022/11/15 11:43:17;;;;;;;1999.90;999.90;;;17.40;84.70;;;;;;5013986;28;20398;-70
2022/11/15 11:46:09;;;;;;;1999.90;999.90;;;17.20;90.80;;;;;;5013246;28;20404;-70
2022/11/15 11:48:51;;;;;;;1999.90;999.90;;;16.90;92.90;;;;;;5013206;28;20823;-70
2022/11/15 11:51:20;;;;;;;1999.90;999.90;;;16.90;94.30;;;;;;5013622;28;20426;-70
2022/11/15 11:54:00;;;;;;;1999.90;999.90;;;16.80;95.60;;;;;;5012868;28;20444;-70
2022/11/15 11:56:33;;;;;;;1999.90;999.90;;;16.90;96.80;;;;;;5013280;28;20457;-70
2022/11/15 11:59:16;;;;;;;1999.90;999.90;;;17.20;98.10;;;;;;5013052;28;20407;-70
2022/11/15 12:01:43;;;;;;;1999.90;999.90;;;17.30;99.80;;;;;;5013280;28;20506;-70
2022/11/15 12:04:18;;;;;;;1999.90;999.90;;;17.50;99.70;;;;;;5013122;28;20466;-70
2022/11/15 12:07:28;;;;;;;1999.90;999.90;;;18.10;98.00;;;;;;5012458;28;20444;-70
2022/11/15 12:10:31;;;;;;;1999.90;999.90;;;18.60;95.90;;;;;;5010858;28;20434;-70
2022/11/15 12:13:04;;;;;;;1999.90;999.90;;;18.80;95.30;;;;;;4971498;28;20413;-70
2022/11/15 12:15:37;;;;;;;1999.90;999.90;;;18.80;92.80;;;;;;5006765;28;20415;-70
2022/11/15 12:18:03;;;;;;;1999.90;999.90;;;18.70;91.90;;;;;;5014436;28;20437;-69
2022/11/15 12:20:41;;;;;;;1999.90;999.90;;;18.40;93.10;;;;;;5000964;28;20450;-69
2022/11/15 12:23:22;;;;;;;1999.90;999.90;;;18.00;94.00;;;;;;5018303;28;20165;-70
2022/11/15 12:26:04;;;;;;;1999.90;999.90;;;17.70;95.00;;;;;;5018314;28;20787;-70
2022/11/15 12:28:29;;;;;;;1999.90;999.90;;;17.50;96.80;;;;;;5019677;28;20399;-70
2022/11/15 12:31:06;;;;;;;1999.90;999.90;;;17.20;98.70;;;;;;5018671;28;20545;-70
2022/11/15 12:33:40;;;;;;;1999.90;999.90;;;16.90;99.90;;;;;;5016693;28;20181;-70